Smithfield, Nebraska
Current Conditions -  °F | °C
As of 5:55 AM on Tuesday 21 Oct 2014 (Local Time) from KLXN Reporting Station
Clear Clear  
Wind Chill: 41°   Ceiling: Unl
Heat Index: 41°   Visibility: 10mi
Dew Point: 38°   Wind: 3mph
Humidity: 88%   Direction: 110°ESE
Pressure: 30.06"   Gusts: NA
Location:  40.57°N, 99.74°W
Report Text: KLXN 211055Z AUTO 11003KT 10SM CLR 05/03 A3006 RMK AO2 T00500032
Loading
Personal Weather Stations






























Interactive Weather Map
Tropical Storm Tracking
New forecast layout! Learn more

10-Day Weather Forecast

Advertisements
Track Severe Weather on mobile